createdAt,value
2022-08-22T00:00:46.712Z,100878.84
2022-08-22T00:02:49.565Z,100843.38
2022-08-22T00:06:05.785Z,100882.22
2022-08-22T00:11:16.802Z,100877.13
2022-08-22T00:16:24.617Z,100884.47
2022-08-22T00:21:31.090Z,100885.81
2022-08-22T00:26:45.270Z,100887.09
2022-08-22T00:31:51.937Z,100891.59
2022-08-22T00:36:59.350Z,100891.41
2022-08-22T00:42:29.507Z,100880.59
2022-08-22T00:47:54.579Z,100883.09
2022-08-22T00:53:16.134Z,100888.84
2022-08-22T00:58:39.764Z,100891.28
2022-08-22T01:04:14.202Z,100893.47
2022-08-22T01:09:26.771Z,100887.00
2022-08-22T01:14:40.254Z,100889.84
2022-08-22T01:20:10.550Z,100895.00
2022-08-22T01:25:34.564Z,100895.00
2022-08-22T01:31:29.752Z,100888.72
2022-08-22T01:37:17.093Z,100885.75
2022-08-22T01:42:44.848Z,100872.69
2022-08-22T01:47:54.329Z,100876.06
2022-08-22T01:53:04.223Z,100887.38
2022-08-22T01:58:16.845Z,100882.03
2022-08-22T02:03:25.052Z,100886.38
2022-08-22T02:08:43.258Z,100879.94
2022-08-22T02:13:54.501Z,100885.91
2022-08-22T02:19:10.810Z,100886.19
2022-08-22T02:24:25.243Z,100886.50
2022-08-22T02:29:33.914Z,100889.88
2022-08-22T02:34:41.113Z,100889.47
2022-08-22T02:39:51.805Z,100884.03
2022-08-22T02:45:07.802Z,100889.41
2022-08-22T02:50:19.011Z,100891.69
2022-08-22T02:55:36.527Z,100885.88
2022-08-22T03:00:47.171Z,100886.72
2022-08-22T03:06:01.349Z,100887.00
2022-08-22T03:11:15.226Z,100887.00
2022-08-22T03:16:27.907Z,100894.31
2022-08-22T03:21:35.879Z,100889.97
2022-08-22T03:26:45.946Z,100896.34
2022-08-22T03:32:13.435Z,100888.50
2022-08-22T03:37:20.588Z,100887.50
2022-08-22T03:43:05.767Z,100877.09
2022-08-22T03:48:26.107Z,100875.00
2022-08-22T03:53:54.891Z,100882.03
2022-08-22T03:59:23.850Z,100889.94
2022-08-22T04:04:48.195Z,100896.81
2022-08-22T04:10:16.217Z,100893.06
2022-08-22T04:15:33.522Z,100895.44
2022-08-22T04:20:56.569Z,100895.72
2022-08-22T04:26:08.257Z,100902.31
2022-08-22T04:31:18.447Z,100900.06
2022-08-22T04:36:27.674Z,100905.13
2022-08-22T04:41:42.360Z,100911.75
2022-08-22T04:46:48.295Z,100913.56
2022-08-22T04:51:56.965Z,100920.03
2022-08-22T04:57:12.155Z,100935.34
2022-08-22T05:02:24.574Z,100926.75
2022-08-22T05:07:36.236Z,100923.63
2022-08-22T05:12:41.786Z,100935.53
2022-08-22T05:17:46.898Z,100938.75
2022-08-22T05:22:53.686Z,100937.66
2022-08-22T05:28:08.350Z,100944.78
2022-08-22T05:33:17.886Z,100940.31
2022-08-22T05:38:25.008Z,100937.53
2022-08-22T05:43:28.970Z,100938.56
2022-08-22T05:48:38.281Z,100940.25
2022-08-22T05:53:45.572Z,100942.16
2022-08-22T05:58:53.051Z,100930.72
2022-08-22T06:04:02.627Z,100936.41
2022-08-22T06:09:09.895Z,100931.56
2022-08-22T06:14:24.973Z,100935.22
2022-08-22T06:19:28.962Z,100945.72
2022-08-22T06:24:37.124Z,100942.56
2022-08-22T06:29:46.561Z,100943.97
2022-08-22T06:34:50.676Z,100941.94
2022-08-22T06:39:56.180Z,100947.94
2022-08-22T06:45:02.066Z,100951.47
2022-08-22T06:50:13.537Z,100950.94
2022-08-22T06:55:19.351Z,100947.09
2022-08-22T07:00:23.524Z,100947.75
2022-08-22T07:05:28.704Z,100945.66
2022-08-22T07:10:33.615Z,100954.38
2022-08-22T07:15:41.495Z,100955.44
2022-08-22T07:20:49.417Z,100949.69
2022-08-22T07:26:07.639Z,100944.81
2022-08-22T07:31:16.596Z,100947.44
2022-08-22T07:36:31.824Z,100949.59
2022-08-22T07:41:44.267Z,100949.31
2022-08-22T07:46:57.253Z,100955.47
2022-08-22T07:52:04.807Z,100946.16
2022-08-22T07:57:14.288Z,100955.88
2022-08-22T08:02:19.710Z,100953.34
2022-08-22T08:07:25.642Z,100957.66
2022-08-22T08:12:33.006Z,100953.75
2022-08-22T08:17:37.874Z,100939.25
2022-08-22T08:22:43.598Z,100940.59
2022-08-22T08:28:06.402Z,100938.91
2022-08-22T08:33:25.808Z,100936.19
2022-08-22T08:38:33.308Z,100934.66
2022-08-22T08:43:44.949Z,100925.94
2022-08-22T08:49:23.975Z,100916.81
2022-08-22T08:54:43.982Z,100911.84
2022-08-22T08:59:55.159Z,100915.44
2022-08-22T09:05:55.991Z,100912.69
2022-08-22T09:11:28.484Z,100909.56
2022-08-22T09:16:50.065Z,100892.06
2022-08-22T09:22:18.146Z,100901.59
2022-08-22T09:27:31.302Z,100902.59
2022-08-22T09:32:45.304Z,100893.34
2022-08-22T09:38:00.629Z,100879.19
2022-08-22T09:43:06.677Z,100885.44
2022-08-22T09:48:30.679Z,100884.53
2022-08-22T09:53:48.171Z,100869.91
2022-08-22T09:59:01.375Z,100869.75
2022-08-22T10:04:53.351Z,100860.66
2022-08-22T10:10:05.554Z,100860.59
2022-08-22T10:15:18.610Z,100851.59
2022-08-22T10:20:28.170Z,100847.53
2022-08-22T10:25:41.677Z,100843.69
2022-08-22T10:30:57.207Z,100843.00
2022-08-22T10:36:07.831Z,100845.56
2022-08-22T10:41:26.798Z,100836.88
2022-08-22T10:46:36.707Z,100833.69
2022-08-22T10:51:47.430Z,100829.50
2022-08-22T10:56:59.248Z,100815.69
2022-08-22T11:02:15.205Z,100822.00
2022-08-22T11:07:48.461Z,100812.09
2022-08-22T11:13:05.778Z,100818.84
2022-08-22T11:18:21.530Z,100814.59
2022-08-22T11:23:37.450Z,100810.56
2022-08-22T11:29:13.587Z,100810.13
2022-08-22T11:34:26.547Z,100806.81
2022-08-22T11:39:35.696Z,100808.97
2022-08-22T11:44:50.942Z,100807.22
2022-08-22T11:49:59.514Z,100810.50
2022-08-22T11:55:11.357Z,100804.56
2022-08-22T12:00:26.649Z,100806.09
2022-08-22T12:05:33.577Z,100796.13
2022-08-22T12:10:38.966Z,100803.44
2022-08-22T12:15:49.034Z,100799.34
2022-08-22T12:21:18.910Z,100790.84
2022-08-22T12:26:31.135Z,100797.38
2022-08-22T12:31:58.211Z,100789.72
2022-08-22T12:37:09.350Z,100785.56
2022-08-22T12:42:29.237Z,100776.72
2022-08-22T12:47:46.051Z,100780.34
2022-08-22T12:53:00.607Z,100774.16
2022-08-22T12:58:11.532Z,100761.03
2022-08-22T13:03:25.045Z,100752.22
2022-08-22T13:08:30.855Z,100751.22
2022-08-22T13:13:38.575Z,100749.16
2022-08-22T13:18:53.714Z,100738.16
2022-08-22T13:23:59.476Z,100744.25
2022-08-22T13:29:24.693Z,100734.53
2022-08-22T13:34:39.961Z,100728.50
2022-08-22T13:39:49.184Z,100725.72
2022-08-22T13:44:55.211Z,100732.63
2022-08-22T13:50:08.229Z,100718.59
2022-08-22T13:55:17.739Z,100709.72
2022-08-22T14:01:06.923Z,100713.91
2022-08-22T14:06:37.973Z,100707.53
2022-08-22T14:11:45.311Z,100708.09
2022-08-22T14:16:51.326Z,100714.75
2022-08-22T14:21:59.183Z,100700.06
2022-08-22T14:27:07.219Z,100705.78
2022-08-22T14:32:35.064Z,100699.28
2022-08-22T14:37:47.306Z,100700.28
2022-08-22T14:42:55.516Z,100702.19
2022-08-22T14:48:30.491Z,100706.13
2022-08-22T14:53:30.504Z,100697.81
2022-08-22T14:58:52.238Z,100696.84
2022-08-22T15:04:00.922Z,100695.59
2022-08-22T15:09:12.846Z,100685.25
2022-08-22T15:14:24.218Z,100676.63
2022-08-22T15:19:35.568Z,100688.00
2022-08-22T15:24:44.595Z,100678.66
2022-08-22T15:29:51.463Z,100668.97
2022-08-22T15:34:55.283Z,100669.81
2022-08-22T15:40:11.604Z,100673.50
2022-08-22T15:45:21.438Z,100665.31
2022-08-22T15:50:32.402Z,100657.53
2022-08-22T15:55:38.061Z,100665.84
2022-08-22T16:00:45.157Z,100656.66
2022-08-22T16:05:55.379Z,100658.25
2022-08-22T16:11:22.473Z,100646.28
2022-08-22T16:16:54.178Z,100635.13
2022-08-22T16:22:15.052Z,100644.13
2022-08-22T16:27:22.401Z,100646.59
2022-08-22T16:32:27.998Z,100650.09
2022-08-22T16:37:55.558Z,100655.22
2022-08-22T16:43:15.051Z,100645.47
2022-08-22T16:48:35.459Z,100650.63
2022-08-22T16:54:13.524Z,100645.00
2022-08-22T16:59:38.276Z,100642.44
2022-08-22T17:04:54.335Z,100638.53
2022-08-22T17:10:20.426Z,100644.34
2022-08-22T17:15:32.971Z,100653.47
2022-08-22T17:20:50.793Z,100655.34
2022-08-22T17:26:07.273Z,100653.50
2022-08-22T17:31:16.970Z,100649.78
2022-08-22T17:36:27.651Z,100654.53
2022-08-22T17:41:40.022Z,100655.69
2022-08-22T17:46:48.874Z,100659.38
2022-08-22T17:51:58.569Z,100664.28
2022-08-22T17:57:06.340Z,100670.53
2022-08-22T18:02:16.364Z,100682.72
2022-08-22T18:07:27.229Z,100677.88
2022-08-22T18:12:34.495Z,100676.72
2022-08-22T18:17:44.320Z,100685.19
2022-08-22T18:22:54.125Z,100694.84
2022-08-22T18:28:00.071Z,100694.50
2022-08-22T18:33:09.283Z,100699.75
2022-08-22T18:38:21.393Z,100707.31
2022-08-22T18:43:37.075Z,100707.75
2022-08-22T18:49:05.330Z,100718.00
2022-08-22T18:54:36.594Z,100736.06
2022-08-22T18:59:47.075Z,100740.94
2022-08-22T19:05:28.687Z,100732.41
2022-08-22T19:10:52.093Z,100745.84
2022-08-22T19:16:07.315Z,100754.41
2022-08-22T19:21:44.930Z,100766.06
2022-08-22T19:26:51.327Z,100776.03
2022-08-22T19:31:56.213Z,100787.72
2022-08-22T19:37:32.049Z,100788.75
2022-08-22T19:42:39.456Z,100785.03
2022-08-22T19:47:43.943Z,100787.72
2022-08-22T19:53:02.957Z,100788.09
2022-08-22T19:58:16.541Z,100793.34
2022-08-22T20:03:30.990Z,100794.34
2022-08-22T20:08:47.964Z,100788.91
2022-08-22T20:13:51.851Z,100790.66
2022-08-22T20:19:07.009Z,100797.56
2022-08-22T20:24:17.448Z,100793.00
2022-08-22T20:29:21.912Z,100799.59
2022-08-22T20:34:31.965Z,100801.44
2022-08-22T20:39:43.756Z,100797.03
2022-08-22T20:44:53.553Z,100802.84
2022-08-22T20:50:03.145Z,100799.94
2022-08-22T20:55:15.165Z,100810.44
2022-08-22T21:00:21.064Z,100809.84
2022-08-22T21:05:26.464Z,100810.63
2022-08-22T21:10:50.675Z,100810.81
2022-08-22T21:15:55.872Z,100813.38
2022-08-22T21:21:08.113Z,100812.50
2022-08-22T21:26:24.963Z,100806.94
2022-08-22T21:31:31.238Z,100806.97
2022-08-22T21:36:38.774Z,100815.69
2022-08-22T21:41:49.225Z,100824.25
2022-08-22T21:46:53.146Z,100816.41
2022-08-22T21:51:57.319Z,100819.34
2022-08-22T21:57:21.153Z,100821.84
2022-08-22T22:02:37.156Z,100830.03
2022-08-22T22:07:42.890Z,100827.09
2022-08-22T22:12:51.234Z,100834.03
2022-08-22T22:17:55.703Z,100829.41
2022-08-22T22:22:59.620Z,100831.03
2022-08-22T22:28:08.016Z,100834.50
2022-08-22T22:33:11.891Z,100833.38
2022-08-22T22:38:19.377Z,100842.41
2022-08-22T22:43:26.858Z,100845.50
2022-08-22T22:48:30.960Z,100842.41
2022-08-22T22:53:40.140Z,100840.00
2022-08-22T22:58:47.593Z,100844.03
2022-08-22T23:03:54.589Z,100838.91
2022-08-22T23:08:58.995Z,100836.28
2022-08-22T23:14:03.963Z,100843.03
2022-08-22T23:19:09.362Z,100839.38
2022-08-22T23:24:13.034Z,100848.59
2022-08-22T23:29:17.931Z,100850.75
2022-08-22T23:34:23.628Z,100849.97
2022-08-22T23:39:28.852Z,100844.25
2022-08-22T23:44:35.470Z,100851.38
2022-08-22T23:49:40.015Z,100851.97
2022-08-22T23:54:43.547Z,100853.25
2022-08-22T23:59:57.968Z,100850.09
